Terminal Aerodrome Forecast
Issued by NWS

Home | Current Version | Previous Version | Text Only | Print | Product List | Glossary On
Versions: 1 2 3 4 5 6 7 8 9 10 11 12 13 14 15 16 17 18 19 20 21 22 23 24 25 26 27 28
000
FTUS46 KSGX 021141
TAFSAN
TAF
KSAN 021141Z 0212/0318 11005KT P6SM -SHRA SCT025 BKN040
     FM021700 16010KT P6SM -SHRA VCTS SCT025 BKN040CB
     FM022000 22012KT P6SM VCSH SCT030 BKN040
     FM030300 VRB05KT P6SM VCSH FEW025 BKN060
     FM031100 VRB06KT P6SM -SHRA VCTS SCT025 BKN035CB
     FM031600 VRB04KT P6SM VCSH SCT025 BKN040=

USA.gov is the U.S. government's official web portal to all federal, state and local government web resources and services.